Time;durP1;ratioP1;P1;durP2;ratioP2;P2;SDS_P1;SDS_P2;PMS_P1;PMS_P2;Temp;Humidity;BMP_temperature;BMP_pressure;BME280_temperature;BME280_humidity;BME280_pressure;Samples;Min_cycle;Max_cycle;Signal;HPM_P1;HPM_P2
2023/07/09 00:00:48;;;;;;;20.40;13.30;;;;;;;22.08;100.00;101609.84;5051342;28;20035;-74
2023/07/09 00:03:15;;;;;;;24.23;13.93;;;;;;;22.05;100.00;101613.09;5038886;28;20476;-75
2023/07/09 00:05:40;;;;;;;20.95;12.98;;;;;;;22.02;100.00;101595.38;5031952;28;20099;-75
2023/07/09 00:08:29;;;;;;;21.75;14.18;;;;;;;21.99;100.00;101595.91;5032071;28;20193;-74
2023/07/09 00:10:56;;;;;;;21.75;13.45;;;;;;;22.00;100.00;101597.53;5045313;28;20040;-75
2023/07/09 00:13:23;;;;;;;19.25;13.68;;;;;;;21.97;100.00;101600.78;5033010;28;20371;-74
2023/07/09 00:15:49;;;;;;;21.65;13.85;;;;;;;22.00;100.00;101604.88;5050801;28;20439;-74
2023/07/09 00:18:15;;;;;;;21.05;13.50;;;;;;;22.00;100.00;101597.53;5050801;28;20029;-74
2023/07/09 00:20:43;;;;;;;21.40;13.13;;;;;;;21.99;100.00;101597.81;5051100;28;20027;-74
2023/07/09 00:23:13;;;;;;;18.00;12.63;;;;;;;21.98;100.00;101604.31;5050762;28;20044;-74
2023/07/09 00:25:41;;;;;;;14.65;10.27;;;;;;;21.98;100.00;101605.16;5050870;28;20033;-74
2023/07/09 00:28:12;;;;;;;20.35;13.02;;;;;;;21.97;100.00;101610.81;5050685;28;20035;-74
2023/07/09 00:30:37;;;;;;;19.15;12.60;;;;;;;21.94;100.00;101606.72;5050727;28;20863;-74
2023/07/09 00:33:04;;;;;;;16.48;11.63;;;;;;;21.84;100.00;101599.25;5050519;28;20037;-74
2023/07/09 00:35:30;;;;;;;21.83;12.68;;;;;;;21.88;100.00;101605.03;5050460;28;20438;-74
2023/07/09 00:38:00;;;;;;;19.88;13.07;;;;;;;21.76;100.00;101597.00;5050551;28;20029;-74
2023/07/09 00:40:26;;;;;;;21.35;13.88;;;;;;;21.76;100.00;101598.91;5037486;28;20397;-74
2023/07/09 00:42:53;;;;;;;20.45;13.38;;;;;;;21.70;100.00;101611.59;5049441;28;20033;-74
2023/07/09 00:45:24;;;;;;;18.25;12.25;;;;;;;21.71;100.00;101612.41;5018687;28;20052;-75
2023/07/09 00:48:06;;;;;;;21.40;14.05;;;;;;;21.65;100.00;101616.97;5031175;28;20110;-75
2023/07/09 00:50:37;;;;;;;19.40;13.05;;;;;;;21.54;100.00;101623.34;5045904;28;20033;-75
2023/07/09 00:53:20;;;;;;;19.20;13.15;;;;;;;21.40;100.00;101620.97;5049633;28;20049;-74
2023/07/09 00:55:53;;;;;;;20.95;13.65;;;;;;;21.36;100.00;101618.97;5050427;28;20025;-74
2023/07/09 00:58:21;;;;;;;27.73;15.82;;;;;;;21.36;100.00;101618.97;5050169;28;20023;-74
2023/07/09 01:00:52;;;;;;;21.52;13.35;;;;;;;21.41;100.00;101621.81;5050117;28;20068;-74
2023/07/09 01:03:38;;;;;;;;;;;;;;;21.52;100.00;101622.75;5032260;28;20029;-75
2023/07/09 01:06:05;;;;;;;22.10;13.07;;;;;;;21.38;100.00;101614.97;5016732;28;19925;-74
2023/07/09 01:08:34;;;;;;;22.58;12.82;;;;;;;21.36;100.00;101616.28;5012936;28;20029;-74
2023/07/09 01:11:00;;;;;;;22.77;14.20;;;;;;;21.43;100.00;101617.75;5038343;28;20033;-74
2023/07/09 01:13:27;;;;;;;20.23;13.80;;;;;;;21.39;100.00;101623.94;5030808;28;20078;-75
2023/07/09 01:15:53;;;;;;;19.60;13.68;;;;;;;21.35;100.00;101617.31;5030715;28;20021;-75
2023/07/09 01:18:19;;;;;;;23.10;13.65;;;;;;;21.32;100.00;101618.66;5035891;28;20605;-75
2023/07/09 01:20:44;;;;;;;18.85;12.95;;;;;;;21.36;100.00;101617.09;5031838;28;20035;-74
2023/07/09 01:23:10;;;;;;;19.05;12.98;;;;;;;21.27;100.00;101604.19;5040647;28;20032;-75
2023/07/09 01:25:42;;;;;;;16.73;11.57;;;;;;;21.29;100.00;101616.44;5039062;28;20025;-75
2023/07/09 01:28:07;;;;;;;20.67;13.32;;;;;;;21.29;100.00;101618.34;5030420;28;20026;-74
2023/07/09 01:30:37;;;;;;;21.67;13.90;;;;;;;21.17;100.00;101616.56;5048379;28;20043;-74
2023/07/09 01:33:02;;;;;;;20.63;13.55;;;;;;;21.10;100.00;101596.09;5049394;28;20036;-74
2023/07/09 01:35:31;;;;;;;20.25;12.43;;;;;;;21.15;100.00;101618.69;5032511;28;20037;-75
2023/07/09 01:37:56;;;;;;;17.23;12.20;;;;;;;21.20;100.00;101621.47;5030338;28;20026;-75
2023/07/09 01:40:24;;;;;;;20.55;13.50;;;;;;;21.15;100.00;101623.28;5029891;28;20519;-75
2023/07/09 01:42:51;;;;;;;25.20;13.23;;;;;;;21.20;100.00;101623.38;5049299;28;20021;-75
2023/07/09 01:45:17;;;;;;;21.60;12.60;;;;;;;21.27;100.00;101626.72;5049173;28;20112;-74
2023/07/09 01:47:43;;;;;;;23.17;14.10;;;;;;;21.26;100.00;101626.97;5049105;28;20535;-74
2023/07/09 01:50:10;;;;;;;26.27;13.32;;;;;;;21.18;100.00;101628.22;5018377;28;20029;-74
2023/07/09 01:52:38;;;;;;;21.40;13.95;;;;;;;21.07;100.00;101626.44;5018847;28;20067;-74
2023/07/09 01:55:04;;;;;;;19.73;13.65;;;;;;;21.01;100.00;101626.34;5048952;28;20032;-75
2023/07/09 01:57:33;;;;;;;18.33;13.00;;;;;;;21.06;100.00;101632.91;5049045;28;20031;-74
2023/07/09 02:00:00;;;;;;;20.15;14.00;;;;;;;20.98;100.00;101632.25;5048985;28;20025;-74
2023/07/09 02:02:26;;;;;;;21.40;14.63;;;;;;;21.01;100.00;101633.63;5048561;28;20036;-74
2023/07/09 02:04:54;;;;;;;21.42;14.32;;;;;;;20.99;100.00;101633.09;5048843;28;20037;-74
2023/07/09 02:07:20;;;;;;;25.52;15.68;;;;;;;21.04;100.00;101637.75;5030636;28;20044;-74
2023/07/09 02:09:46;;;;;;;24.33;13.43;;;;;;;20.99;100.00;101631.19;5048713;28;20159;-74
2023/07/09 02:12:13;;;;;;;21.20;13.93;;;;;;;20.96;100.00;101642.53;5048715;28;20541;-74
2023/07/09 02:14:39;;;;;;;21.02;12.48;;;;;;;20.91;100.00;101639.75;5048667;28;20032;-74
2023/07/09 02:17:05;;;;;;;21.08;14.23;;;;;;;20.83;100.00;101642.88;5030591;28;20387;-75
2023/07/09 02:19:30;;;;;;;21.10;16.13;;;;;;;20.72;100.00;101636.47;5016604;28;20037;-75
2023/07/09 02:21:56;;;;;;;21.38;15.13;;;;;;;20.63;100.00;101632.50;5042167;28;20101;-74
2023/07/09 02:24:24;;;;;;;21.95;15.45;;;;;;;20.58;100.00;101633.22;5029505;28;20044;-74
2023/07/09 02:26:51;;;;;;;22.25;15.25;;;;;;;20.65;100.00;101630.38;5048516;28;20029;-74
2023/07/09 02:29:16;;;;;;;19.95;14.20;;;;;;;20.60;100.00;101635.69;5030514;28;20571;-74
2023/07/09 02:31:42;;;;;;;21.92;14.63;;;;;;;20.61;100.00;101631.91;5048575;28;20124;-74
2023/07/09 02:34:08;;;;;;;18.58;12.93;;;;;;;20.54;100.00;101629.38;5048509;28;20484;-74
2023/07/09 02:36:33;;;;;;;20.38;14.15;;;;;;;20.58;100.00;101635.09;5048128;28;20036;-74
2023/07/09 02:38:59;;;;;;;20.75;13.95;;;;;;;20.58;100.00;101633.22;5036850;28;20021;-74
2023/07/09 02:41:24;;;;;;;24.23;16.85;;;;;;;20.55;100.00;101631.00;5029443;28;20025;-74
2023/07/09 02:43:50;;;;;;;21.70;15.75;;;;;;;20.52;100.00;101630.66;5012021;28;20445;-74
2023/07/09 02:46:15;;;;;;;23.67;16.23;;;;;;;20.47;100.00;101625.13;5029233;28;20159;-74
2023/07/09 02:48:40;;;;;;;21.90;18.23;;;;;;;20.44;100.00;101640.00;5029285;28;20076;-74
2023/07/09 02:51:05;;;;;;;20.23;16.05;;;;;;;20.39;100.00;101637.19;5017233;28;20065;-74
2023/07/09 02:53:31;;;;;;;21.48;14.88;;;;;;;20.33;100.00;101633.56;5029062;28;20061;-74
2023/07/09 02:55:56;;;;;;;19.52;13.18;;;;;;;20.28;100.00;101638.88;5029040;28;20025;-74
2023/07/09 02:58:22;;;;;;;20.23;13.68;;;;;;;20.21;100.00;101640.09;5029003;28;20025;-74
2023/07/09 03:00:53;;;;;;;20.13;14.48;;;;;;;20.18;100.00;101638.69;5029174;28;20052;-74
2023/07/09 03:03:19;;;;;;;21.85;15.20;;;;;;;20.18;100.00;101640.59;5029324;28;20120;-74
2023/07/09 03:05:48;;;;;;;19.83;13.35;;;;;;;20.12;100.00;101629.66;5029216;28;20033;-74
2023/07/09 03:08:14;;;;;;;20.55;14.40;;;;;;;20.17;100.00;101636.22;5045746;28;20037;-74
2023/07/09 03:10:40;;;;;;;23.65;15.55;;;;;;;20.14;100.00;101632.09;5048215;28;20033;-74
2023/07/09 03:13:05;;;;;;;20.75;13.65;;;;;;;20.13;100.00;101634.00;5048078;28;20090;-75
2023/07/09 03:15:31;;;;;;;20.60;15.27;;;;;;;20.08;100.00;101644.72;5050409;28;20033;-74
2023/07/09 03:17:57;;;;;;;21.08;15.57;;;;;;;20.03;100.00;101636.50;5043146;28;20472;-74
2023/07/09 03:20:22;;;;;;;25.50;17.67;;;;;;;19.99;100.00;101635.34;5039755;28;20123;-74
2023/07/09 03:22:48;;;;;;;22.92;15.85;;;;;;;19.95;100.00;101636.06;5015118;28;20041;-74
2023/07/09 03:25:13;;;;;;;20.15;14.50;;;;;;;20.03;100.00;101633.78;5032765;28;20033;-74
2023/07/09 03:27:39;;;;;;;21.58;16.00;;;;;;;20.06;100.00;101633.31;5048008;28;20037;-74
2023/07/09 03:30:05;;;;;;;22.10;15.18;;;;;;;20.04;100.00;101640.88;5051843;28;20190;-75
2023/07/09 03:32:30;;;;;;;22.85;15.93;;;;;;;20.02;100.00;101634.03;5050805;28;20033;-75
2023/07/09 03:34:56;;;;;;;23.60;16.52;;;;;;;20.02;100.00;101634.88;5051813;28;20032;-74
2023/07/09 03:37:21;;;;;;;26.88;18.42;;;;;;;20.00;100.00;101628.03;5034242;28;20030;-75
2023/07/09 03:39:46;;;;;;;24.05;18.25;;;;;;;19.98;100.00;101628.28;5036070;28;20025;-74
2023/07/09 03:42:12;;;;;;;21.95;17.48;;;;;;;20.04;100.00;101631.91;5051553;28;20041;-75
2023/07/09 03:44:37;;;;;;;22.25;15.77;;;;;;;20.07;100.00;101629.53;5035087;28;20040;-75
2023/07/09 03:47:03;;;;;;;26.45;18.27;;;;;;;20.08;100.00;101633.88;5032229;28;20403;-74
2023/07/09 03:49:28;;;;;;;27.02;20.10;;;;;;;20.00;100.00;101628.84;5032304;28;20033;-74
2023/07/09 03:51:53;;;;;;;27.05;18.73;;;;;;;19.95;100.00;101627.94;5038351;28;20056;-75
2023/07/09 03:54:19;;;;;;;24.95;17.13;;;;;;;19.97;100.00;101629.34;5039586;28;20030;-75
2023/07/09 03:56:44;;;;;;;24.20;17.85;;;;;;;19.98;100.00;101632.88;5032097;28;20025;-74
2023/07/09 03:59:10;;;;;;;26.25;18.63;;;;;;;19.91;100.00;101628.41;5032131;28;20047;-74
2023/07/09 04:01:36;;;;;;;23.83;18.33;;;;;;;19.89;100.00;101625.13;5050855;28;20052;-75
2023/07/09 04:04:02;;;;;;;27.70;18.80;;;;;;;19.93;100.00;101639.00;5051234;28;20029;-74
2023/07/09 04:06:28;;;;;;;26.17;19.73;;;;;;;19.92;100.00;101631.94;5031856;28;20384;-75
2023/07/09 04:08:53;;;;;;;22.90;19.00;;;;;;;19.98;100.00;101639.09;5031990;28;20036;-75
2023/07/09 04:11:19;;;;;;;29.92;18.85;;;;;;;19.98;100.00;101636.38;5042292;28;20035;-75
2023/07/09 04:13:44;;;;;;;27.55;19.60;;;;;;;19.99;100.00;101638.06;5032985;28;20033;-75
2023/07/09 04:16:10;;;;;;;25.60;17.75;;;;;;;20.01;100.00;101632.38;5051065;28;20029;-75
2023/07/09 04:18:36;;;;;;;28.65;20.10;;;;;;;20.10;100.00;101637.19;5048323;28;20029;-75
2023/07/09 04:21:02;;;;;;;27.65;20.42;;;;;;;20.14;100.00;101634.81;5022430;28;20040;-75
2023/07/09 04:23:27;;;;;;;26.85;21.35;;;;;;;20.23;100.00;101637.97;5050760;28;20064;-75
2023/07/09 04:25:52;;;;;;;24.23;19.75;;;;;;;20.25;100.00;101638.53;5025433;28;20033;-75
2023/07/09 04:28:18;;;;;;;28.60;20.23;;;;;;;20.29;100.00;101632.41;5013760;28;20080;-75
2023/07/09 04:30:51;;;;;;;28.38;23.20;;;;;;;20.38;100.00;101640.13;5031450;28;20030;-75
2023/07/09 04:33:18;;;;;;;27.42;22.50;;;;;;;20.36;100.00;101627.66;5031484;28;20068;-75
2023/07/09 04:35:45;;;;;;;25.63;21.70;;;;;;;20.45;100.00;101638.09;5031489;28;20396;-75
2023/07/09 04:38:11;;;;;;;25.15;21.75;;;;;;;20.49;100.00;101634.66;5031481;28;20029;-74
2023/07/09 04:40:37;;;;;;;27.60;21.75;;;;;;;20.56;100.00;101632.63;5031264;28;20377;-75
2023/07/09 04:43:02;;;;;;;30.85;23.27;;;;;;;20.52;100.00;101617.91;5031214;28;20437;-74
2023/07/09 04:45:27;;;;;;;26.38;22.13;;;;;;;20.64;100.00;101638.72;5035719;28;20029;-74
2023/07/09 04:47:53;;;;;;;35.72;25.63;;;;;;;20.69;100.00;101639.63;5050106;28;20028;-75
2023/07/09 04:50:18;;;;;;;29.48;23.85;;;;;;;20.79;100.00;101649.84;5050601;28;20039;-75
2023/07/09 04:52:43;;;;;;;32.75;24.73;;;;;;;20.85;100.00;101643.41;5049949;28;20081;-75
2023/07/09 04:55:09;;;;;;;31.58;23.13;;;;;;;20.94;100.00;101644.66;5050012;28;20099;-75
2023/07/09 04:57:34;;;;;;;31.95;24.60;;;;;;;21.00;100.00;101642.84;5049999;28;20052;-75
2023/07/09 05:00:00;;;;;;;26.85;23.48;;;;;;;21.10;100.00;101632.16;5032015;28;20124;-75
2023/07/09 05:02:25;;;;;;;30.73;25.98;;;;;;;21.17;100.00;101640.97;5049975;28;20125;-75
2023/07/09 05:04:51;;;;;;;29.38;25.35;;;;;;;21.23;100.00;101636.44;5049936;28;20033;-74
2023/07/09 05:07:16;;;;;;;34.05;26.92;;;;;;;21.33;100.00;101642.00;5049801;28;20041;-75
2023/07/09 05:09:42;;;;;;;30.67;24.65;;;;;;;21.42;100.00;101642.44;5049646;28;20040;-75
2023/07/09 05:12:08;;;;;;;29.38;24.30;;;;;;;21.55;100.00;101635.81;5031817;28;20044;-75
2023/07/09 05:14:33;;;;;;;31.88;26.48;;;;;;;21.63;100.00;101643.53;5032129;28;20105;-74
2023/07/09 05:16:59;;;;;;;29.98;25.02;;;;;;;21.67;100.00;101648.22;5046701;28;20513;-74
2023/07/09 05:19:24;;;;;;;30.15;24.63;;;;;;;21.78;100.00;101632.88;5030880;28;20112;-75
2023/07/09 05:21:50;;;;;;;30.55;26.30;;;;;;;21.83;100.00;101640.28;5030598;28;20425;-75
2023/07/09 05:24:15;;;;;;;32.40;27.17;;;;;;;21.91;100.00;101647.16;5030466;28;20477;-75
2023/07/09 05:26:41;;;;;;;30.40;26.00;;;;;;;22.00;100.00;101640.19;5030655;28;20040;-75
2023/07/09 05:29:06;;;;;;;30.27;26.80;;;;;;;22.02;100.00;101632.59;5012641;28;20115;-75
2023/07/09 05:31:33;;;;;;;31.52;27.23;;;;;;;22.12;100.00;101643.59;5026838;28;20044;-75
2023/07/09 05:34:01;;;;;;;31.58;28.17;;;;;;;22.24;100.00;101652.47;5030441;28;20494;-75
2023/07/09 05:36:28;;;;;;;34.55;27.35;;;;;;;22.29;100.00;101649.78;5030180;28;20033;-75
2023/07/09 05:38:54;;;;;;;33.65;29.80;;;;;;;22.34;100.00;101653.63;5041847;28;20043;-75
2023/07/09 05:41:19;;;;;;;32.83;27.50;;;;;;;22.38;100.00;101639.28;5049168;28;20021;-75
2023/07/09 05:43:45;;;;;;;32.47;28.77;;;;;;;22.55;100.00;101644.59;5039943;28;20381;-75
2023/07/09 05:46:12;;;;;;;33.10;28.08;;;;;;;22.62;100.00;101644.41;5030061;28;20033;-75
2023/07/09 05:48:37;;;;;;;33.90;30.20;;;;;;;22.69;100.00;101643.13;5029906;28;20041;-75
2023/07/09 05:51:03;;;;;;;32.70;28.95;;;;;;;22.76;100.00;101640.97;5033860;28;20025;-75
2023/07/09 05:53:28;;;;;;;33.00;28.95;;;;;;;22.85;100.00;101652.22;5029797;28;20057;-75
2023/07/09 05:55:55;;;;;;;33.60;30.23;;;;;;;22.94;100.00;101656.09;5029961;28;20075;-75
2023/07/09 05:58:20;;;;;;;33.25;28.48;;;;;;;23.07;100.00;101649.41;5029925;28;20065;-75
2023/07/09 06:00:45;;;;;;;33.15;29.65;;;;;;;23.24;100.00;101638.41;5022914;28;20068;-75
2023/07/09 06:03:11;;;;;;;35.20;28.70;;;;;;;23.71;100.00;101651.19;5048830;28;20111;-74
2023/07/09 06:05:36;;;;;;;33.65;29.52;;;;;;;24.48;95.68;101662.38;5019063;28;20095;-75
2023/07/09 06:08:03;;;;;;;34.28;27.83;;;;;;;24.74;93.22;101660.50;5011657;28;20072;-75
2023/07/09 06:10:29;;;;;;;33.55;28.85;;;;;;;24.73;93.33;101661.56;4995493;28;20033;-75
2023/07/09 06:12:58;;;;;;;32.97;29.48;;;;;;;24.60;94.10;101659.38;5029743;28;20060;-75
2023/07/09 06:15:24;;;;;;;33.63;28.13;;;;;;;24.51;94.80;101661.03;5029897;28;20389;-75
2023/07/09 06:17:49;;;;;;;32.45;27.98;;;;;;;24.39;95.53;101655.78;5011670;28;20440;-75
2023/07/09 06:20:15;;;;;;;30.58;27.38;;;;;;;24.36;96.16;101661.78;5029584;28;20063;-75
2023/07/09 06:22:40;;;;;;;29.63;26.55;;;;;;;24.32;95.92;101657.97;5029421;28;20057;-75
2023/07/09 06:25:06;;;;;;;33.25;27.88;;;;;;;24.38;95.98;101660.41;5033060;28;20064;-75
2023/07/09 06:27:31;;;;;;;31.50;28.15;;;;;;;24.46;95.26;101654.47;5029447;28;20484;-75
2023/07/09 06:29:57;;;;;;;31.98;26.80;;;;;;;24.52;95.32;101655.28;5029470;28;20063;-75
2023/07/09 06:32:22;;;;;;;31.42;26.77;;;;;;;24.57;95.63;101659.94;5011577;28;20037;-75
2023/07/09 06:34:48;;;;;;;33.05;29.02;;;;;;;24.57;96.54;101654.47;5022828;28;20638;-75
2023/07/09 06:37:14;;;;;;;30.40;26.58;;;;;;;24.56;95.10;101667.28;5048643;28;20075;-75
2023/07/09 06:39:39;;;;;;;30.20;26.42;;;;;;;24.58;96.48;101658.84;5030450;28;20056;-75
2023/07/09 06:42:05;;;;;;;30.05;26.58;;;;;;;24.59;95.99;101666.75;5022277;28;20052;-77
2023/07/09 06:44:30;;;;;;;30.70;27.25;;;;;;;24.67;95.69;101668.13;5003503;28;20032;-75
2023/07/09 06:46:56;;;;;;;27.58;23.80;;;;;;;24.71;95.66;101667.31;5034647;28;20025;-74
2023/07/09 06:49:21;;;;;;;29.98;25.52;;;;;;;24.79;96.04;101657.78;5029419;28;20060;-74
2023/07/09 06:51:46;;;;;;;27.90;23.95;;;;;;;24.85;92.75;101653.94;5032005;28;20049;-74
2023/07/09 06:54:12;;;;;;;31.13;25.88;;;;;;;24.93;96.61;101658.84;5033277;28;20451;-74
2023/07/09 06:56:38;;;;;;;28.17;24.17;;;;;;;25.03;95.02;101655.31;5052467;28;20036;-74
2023/07/09 06:59:03;;;;;;;27.65;23.88;;;;;;;25.03;94.10;101655.31;5052281;28;20052;-74
2023/07/09 07:01:29;;;;;;;29.73;23.10;;;;;;;25.12;93.00;101658.28;5052214;28;20123;-74
2023/07/09 07:03:54;;;;;;;31.65;24.45;;;;;;;25.19;92.41;101658.88;5034227;28;20115;-74
2023/07/09 07:06:19;;;;;;;28.30;24.52;;;;;;;25.27;93.05;101663.75;5034139;28;20064;-74
2023/07/09 07:08:45;;;;;;;27.23;22.55;;;;;;;25.33;91.01;101665.38;5034835;28;20064;-74
2023/07/09 07:11:10;;;;;;;27.38;21.20;;;;;;;25.38;90.44;101659.09;5031802;28;20033;-75
2023/07/09 07:13:38;;;;;;;26.70;20.75;;;;;;;25.37;89.59;101649.28;5032120;28;20033;-74
2023/07/09 07:16:06;;;;;;;25.83;19.52;;;;;;;25.50;88.73;101658.81;5032496;28;20060;-74
2023/07/09 07:18:31;;;;;;;23.83;20.70;;;;;;;25.55;89.20;101656.88;5032264;28;20047;-74
2023/07/09 07:20:56;;;;;;;29.48;19.50;;;;;;;25.63;89.50;101655.50;5014867;28;20492;-74
2023/07/09 07:23:23;;;;;;;24.90;18.90;;;;;;;25.71;88.57;101654.91;5032867;28;20041;-73
2023/07/09 07:25:48;;;;;;;24.95;17.40;;;;;;;25.75;89.48;101655.16;5032210;28;20025;-73
2023/07/09 07:28:15;;;;;;;23.02;16.90;;;;;;;25.80;87.54;101650.47;5014735;28;20043;-74
2023/07/09 07:30:40;;;;;;;23.98;16.88;;;;;;;25.93;87.80;101662.75;5051922;28;20029;-74
2023/07/09 07:33:05;;;;;;;25.73;19.08;;;;;;;26.03;85.51;101650.97;5051535;28;20436;-74
2023/07/09 07:35:31;;;;;;;24.73;19.20;;;;;;;26.11;86.35;101657.75;5051371;28;20767;-74
2023/07/09 07:37:56;;;;;;;22.40;18.13;;;;;;;26.16;86.52;101661.28;5033589;28;20033;-74
2023/07/09 07:40:22;;;;;;;23.65;17.48;;;;;;;26.20;85.69;101656.09;5051651;28;20029;-74
2023/07/09 07:42:47;;;;;;;23.50;17.55;;;;;;;26.34;84.59;101657.09;5051521;28;20443;-74
2023/07/09 07:45:13;;;;;;;24.92;18.70;;;;;;;26.43;83.97;101657.28;5051406;28;20531;-74
2023/07/09 07:47:39;;;;;;;23.33;17.13;;;;;;;26.53;86.71;101659.19;5051379;28;20029;-74
2023/07/09 07:50:05;;;;;;;23.77;16.50;;;;;;;26.57;84.31;101652.84;5051426;28;20052;-74
2023/07/09 07:52:31;;;;;;;24.63;15.75;;;;;;;26.69;85.51;101654.41;5033182;28;20411;-74
2023/07/09 07:54:56;;;;;;;21.83;15.25;;;;;;;26.80;83.89;101664.16;5051346;28;20025;-74
2023/07/09 07:57:24;;;;;;;23.13;14.93;;;;;;;26.95;83.50;101665.97;5051192;28;20079;-74
2023/07/09 07:59:50;;;;;;;19.38;11.45;;;;;;;27.00;77.78;101661.25;5051099;28;20033;-74
2023/07/09 08:02:15;;;;;;;16.70;9.75;;;;;;;27.15;79.80;101670.44;5050745;28;20033;-74
2023/07/09 08:04:41;;;;;;;15.88;10.50;;;;;;;27.25;76.67;101667.63;5050899;28;20380;-74
2023/07/09 08:07:08;;;;;;;17.83;9.73;;;;;;;27.30;77.04;101662.09;5042064;28;20044;-76
2023/07/09 08:09:34;;;;;;;17.92;8.80;;;;;;;27.51;74.21;101671.75;5045298;28;20082;-75
2023/07/09 08:12:01;;;;;;;13.88;9.85;;;;;;;27.66;74.10;101673.47;5033609;28;20124;-76
2023/07/09 08:14:26;;;;;;;16.67;9.85;;;;;;;27.79;75.08;101657.44;5032018;28;20422;-71
2023/07/09 08:16:52;;;;;;;17.77;10.32;;;;;;;27.96;74.30;101655.88;5035160;28;20026;-75
2023/07/09 08:19:19;;;;;;;18.38;10.55;;;;;;;28.96;68.37;101661.22;5019448;28;20056;-76
2023/07/09 08:21:45;;;;;;;15.88;10.27;;;;;;;30.38;65.58;101655.94;5018519;28;20029;-74
2023/07/09 08:24:10;;;;;;;17.27;9.30;;;;;;;31.84;57.49;101654.31;5034752;28;20146;-73
2023/07/09 08:26:37;;;;;;;13.02;8.25;;;;;;;33.24;51.58;101654.25;5033948;28;20116;-77
2023/07/09 08:29:03;;;;;;;15.60;6.72;;;;;;;34.42;47.72;101648.63;5034961;28;20387;-77
2023/07/09 08:31:29;;;;;;;11.00;7.65;;;;;;;35.10;45.94;101644.69;5034042;28;20033;-79
2023/07/09 08:33:55;;;;;;;9.98;6.57;;;;;;;35.81;42.95;101648.16;5031249;28;20035;-78
2023/07/09 08:36:20;;;;;;;11.98;7.00;;;;;;;36.28;41.69;101636.50;5036660;28;20060;-75
2023/07/09 08:38:45;;;;;;;11.05;6.57;;;;;;;36.95;42.40;101637.53;5034625;28;20037;-75
2023/07/09 08:41:44;;;;;;;11.85;6.70;;;;;;;37.70;42.53;101633.00;5035798;28;20138;-75
2023/07/09 08:44:24;;;;;;;12.15;6.22;;;;;;;37.86;38.38;101639.34;5029136;28;20032;-75
2023/07/09 08:47:16;;;;;;;12.65;6.70;;;;;;;38.46;40.82;101638.22;5034690;28;20106;-75
2023/07/09 08:49:55;;;;;;;13.18;6.72;;;;;;;38.74;39.12;101638.75;5015587;28;20422;-75
2023/07/09 08:52:41;;;;;;;12.77;6.55;;;;;;;39.31;37.79;101638.13;5035541;28;20527;-75
2023/07/09 08:55:19;;;;;;;12.07;7.03;;;;;;;39.06;35.20;101632.94;5034185;28;20543;-75
2023/07/09 08:57:59;;;;;;;12.13;7.40;;;;;;;39.19;37.45;101628.75;5015470;28;20388;-75
2023/07/09 09:00:44;;;;;;;12.90;6.85;;;;;;;39.27;35.53;101631.66;5016787;28;20477;-75
2023/07/09 09:03:16;;;;;;;13.52;6.60;;;;;;;39.15;35.18;101639.06;5034041;28;20024;-75
2023/07/09 09:05:44;;;;;;;9.43;6.05;;;;;;;38.91;34.53;101623.53;5033810;28;20021;-75
2023/07/09 09:08:55;;;;;;;15.55;7.30;;;;;;;39.50;38.19;101631.66;5034823;28;20025;-75
2023/07/09 09:11:25;;;;;;;12.82;7.43;;;;;;;37.54;35.39;101632.25;4974595;28;20064;-75
2023/07/09 09:13:56;;;;;;;12.32;6.30;;;;;;;35.97;37.96;101622.13;5032896;28;20456;-75
2023/07/09 09:16:32;;;;;;;10.70;6.53;;;;;;;34.86;40.49;101624.06;5033728;28;20029;-75
2023/07/09 09:18:59;;;;;;;11.32;6.10;;;;;;;33.92;41.45;101621.81;5033334;28;20021;-75
2023/07/09 09:21:31;;;;;;;12.82;6.45;;;;;;;33.45;43.89;101618.34;5009727;28;20087;-75
2023/07/09 09:23:59;;;;;;;;;;;;;;;33.52;45.43;101622.22;5031068;28;20860;-76
2023/07/09 09:26:34;;;;;;;13.27;7.23;;;;;;;32.68;46.45;101621.88;5032532;28;19916;-74
2023/07/09 09:29:00;;;;;;;11.93;6.80;;;;;;;32.37;46.63;101629.53;5032839;28;20047;-75
2023/07/09 09:31:29;;;;;;;11.15;7.18;;;;;;;32.18;46.79;101625.16;5032880;28;20017;-75
2023/07/09 09:33:55;;;;;;;9.52;6.50;;;;;;;32.05;47.73;101620.59;5034241;28;20087;-75
2023/07/09 09:36:25;;;;;;;12.23;6.97;;;;;;;32.05;47.96;101628.88;5034308;28;20033;-75
2023/07/09 09:38:52;;;;;;;12.87;6.27;;;;;;;31.91;47.94;101631.75;5033963;28;20554;-75
2023/07/09 09:41:24;;;;;;;12.18;7.20;;;;;;;31.88;49.04;101618.59;5033344;28;20033;-75
2023/07/09 09:43:54;;;;;;;10.30;6.43;;;;;;;31.86;47.21;101616.19;5033905;28;20033;-75
2023/07/09 09:46:24;;;;;;;7.28;5.75;;;;;;;31.97;49.57;101613.13;5033528;28;20037;-75
2023/07/09 09:48:54;;;;;;;8.73;6.23;;;;;;;31.80;46.94;101602.84;5030762;28;20052;-79
2023/07/09 09:51:19;;;;;;;11.77;6.38;;;;;;;31.66;47.01;101611.28;5032627;28;20287;-78
2023/07/09 09:53:51;;;;;;;10.00;6.30;;;;;;;31.61;50.37;101601.19;5032251;28;20412;-79
2023/07/09 09:56:28;;;;;;;11.00;6.85;;;;;;;31.78;51.34;101596.84;5031971;28;20475;-77
2023/07/09 09:58:55;;;;;;;11.45;6.05;;;;;;;31.72;50.14;101589.84;5033148;28;20021;-77
2023/07/09 10:01:27;;;;;;;9.60;5.57;;;;;;;31.77;47.43;101597.97;5015151;28;20058;-78
2023/07/09 10:03:56;;;;;;;8.73;6.03;;;;;;;31.87;47.46;101589.38;5029941;28;20109;-77
2023/07/09 10:06:36;;;;;;;11.57;6.28;;;;;;;31.97;47.22;101582.78;5030448;28;20037;-79
2023/07/09 10:09:15;;;;;;;8.07;5.35;;;;;;;31.95;46.58;101580.34;5034197;28;20661;-79
2023/07/09 10:11:47;;;;;;;8.65;5.47;;;;;;;31.96;47.67;101581.13;5033503;28;20114;-76
2023/07/09 10:14:37;;;;;;;7.95;5.63;;;;;;;32.03;48.50;101584.22;5030940;28;20037;-79
2023/07/09 10:17:21;;;;;;;9.13;5.88;;;;;;;32.02;48.28;101585.38;5014547;28;20054;-79
2023/07/09 10:19:55;;;;;;;10.25;6.20;;;;;;;32.06;50.88;101586.34;5032064;28;20032;-82
2023/07/09 10:22:40;;;;;;;7.78;6.07;;;;;;;32.22;49.78;101583.88;5032277;28;20442;-76
2023/07/09 10:25:44;;;;;;;10.27;6.13;;;;;;;32.38;47.73;101582.25;5033047;28;20465;-76
2023/07/09 10:28:28;;;;;;;8.00;5.15;;;;;;;32.42;48.07;101579.66;5032665;28;20029;-76
2023/07/09 10:30:55;;;;;;;12.43;6.32;;;;;;;32.49;48.15;101580.00;5032684;28;20040;-77
2023/07/09 10:33:45;;;;;;;15.15;5.93;;;;;;;32.49;48.50;101585.53;5033337;28;20023;-76
2023/07/09 10:36:25;;;;;;;9.90;6.13;;;;;;;32.69;47.73;101603.34;5032127;28;20051;-77
2023/07/09 10:39:14;;;;;;;9.80;6.95;;;;;;;32.78;47.73;101600.53;5033101;28;20077;-77
2023/07/09 10:41:42;;;;;;;9.27;6.05;;;;;;;32.69;47.47;101606.91;5031304;28;20056;-77
2023/07/09 10:44:21;;;;;;;12.13;6.82;;;;;;;32.71;49.45;101607.41;5031806;28;20027;-78
2023/07/09 10:46:51;;;;;;;10.55;6.28;;;;;;;32.71;49.39;101588.06;5032641;28;20025;-78
2023/07/09 10:49:18;;;;;;;11.60;6.10;;;;;;;32.68;47.08;101599.78;5033007;28;20075;-78
2023/07/09 10:51:50;;;;;;;11.32;6.32;;;;;;;32.77;48.70;101596.97;5031807;28;20679;-76
2023/07/09 10:54:18;;;;;;;12.93;6.32;;;;;;;32.71;45.90;101599.09;5033295;28;20079;-76
2023/07/09 10:56:48;;;;;;;13.02;6.32;;;;;;;32.80;46.06;101590.78;5033521;28;20017;-78
2023/07/09 10:59:26;;;;;;;11.37;6.00;;;;;;;32.89;43.64;101597.09;5032731;28;20033;-77
2023/07/09 11:02:26;;;;;;;10.93;5.15;;;;;;;32.97;44.76;101593.50;5033065;28;20132;-79
2023/07/09 11:05:00;;;;;;;12.52;6.07;;;;;;;33.04;44.22;101587.50;5031136;28;20037;-79
2023/07/09 11:07:26;;;;;;;10.60;5.05;;;;;;;33.08;43.01;101574.63;5032316;28;20026;-78
2023/07/09 11:09:54;;;;;;;8.27;4.93;;;;;;;33.22;43.19;101574.38;5031737;28;20422;-78
2023/07/09 11:12:30;;;;;;;9.65;5.32;;;;;;;33.18;43.26;101574.25;5032149;28;20448;-78